Time;durP1;ratioP1;P1;durP2;ratioP2;P2;SDS_P1;SDS_P2;PMS_P1;PMS_P2;Temp;Humidity;BMP_temperature;BMP_pressure;BME280_temperature;BME280_humidity;BME280_pressure;Samples;Min_cycle;Max_cycle;Signal;HPM_P1;HPM_P2
2022/08/26 00:00:35;;;;;;;;;;;22.30;52.80;;;;;;483770;246;1212;-74
2022/08/26 00:02:36;;;;;;;;;;;22.30;52.90;;;;;;483836;246;1165;-74
2022/08/26 00:04:37;;;;;;;;;;;22.40;52.90;;;;;;483769;237;2156;-74
2022/08/26 00:06:39;;;;;;;;;;;22.30;52.60;;;;;;483842;246;1211;-74
2022/08/26 00:08:40;;;;;;;;;;;22.40;52.70;;;;;;483898;246;1069;-74
2022/08/26 00:10:41;;;;;;;;;;;22.40;52.50;;;;;;483804;246;1155;-74
2022/08/26 00:12:43;;;;;;;;;;;22.40;52.50;;;;;;483929;246;1192;-74
2022/08/26 00:14:44;;;;;;;;;;;22.50;52.30;;;;;;483703;246;1187;-74
2022/08/26 00:16:45;;;;;;;;;;;22.50;52.20;;;;;;483907;246;1227;-74
2022/08/26 00:18:47;;;;;;;;;;;22.40;52.30;;;;;;483767;246;1178;-74
2022/08/26 00:20:48;;;;;;;;;;;22.30;52.50;;;;;;483823;246;1121;-74
2022/08/26 00:22:50;;;;;;;;;;;22.40;52.70;;;;;;483869;246;1165;-74
2022/08/26 00:24:51;;;;;;;;;;;22.40;52.60;;;;;;483843;246;2200;-74
2022/08/26 00:26:52;;;;;;;;;;;22.40;52.50;;;;;;483826;246;1166;-74
2022/08/26 00:28:54;;;;;;;;;;;22.40;52.60;;;;;;484051;246;1318;-74
2022/08/26 00:30:56;;;;;;;;;;;22.30;52.80;;;;;;483902;246;1084;-74
2022/08/26 00:32:56;;;;;;;;;;;22.30;52.90;;;;;;483790;246;1386;-74
2022/08/26 00:34:58;;;;;;;;;;;22.30;52.80;;;;;;483796;246;1120;-74
2022/08/26 00:36:59;;;;;;;;;;;22.40;52.70;;;;;;484013;243;1112;-74
2022/08/26 00:39:00;;;;;;;;;;;22.40;52.70;;;;;;483787;246;1164;-74
2022/08/26 00:41:02;;;;;;;;;;;22.40;52.80;;;;;;483757;246;1130;-74
2022/08/26 00:43:03;;;;;;;;;;;22.40;52.60;;;;;;483849;246;1183;-74
2022/08/26 00:45:04;;;;;;;;;;;22.50;52.50;;;;;;483752;246;2183;-74
2022/08/26 00:47:06;;;;;;;;;;;22.50;52.30;;;;;;483868;243;1103;-74
2022/08/26 00:49:07;;;;;;;;;;;22.50;52.40;;;;;;483691;246;1313;-74
2022/08/26 00:51:08;;;;;;;;;;;22.50;52.30;;;;;;483862;246;1192;-74
2022/08/26 00:53:20;;;;;;;;;;;22.50;52.20;;;;;;484001;246;1114;-74
2022/08/26 00:55:11;;;;;;;;;;;22.40;52.30;;;;;;482958;246;1376;-74
2022/08/26 00:57:13;;;;;;;;;;;22.40;52.50;;;;;;483825;246;1072;-74
2022/08/26 00:59:14;;;;;;;;;;;22.50;52.50;;;;;;484191;246;1172;-75
2022/08/26 01:01:15;;;;;;;;;;;22.40;52.40;;;;;;483879;246;1088;-74
2022/08/26 01:03:17;;;;;;;;;;;22.40;52.50;;;;;;483855;246;1214;-74
2022/08/26 01:05:18;;;;;;;;;;;22.40;52.50;;;;;;483821;246;2164;-74
2022/08/26 01:07:20;;;;;;;;;;;22.40;52.50;;;;;;483828;245;1077;-74
2022/08/26 01:09:21;;;;;;;;;;;22.40;52.50;;;;;;483801;246;1093;-74
2022/08/26 01:11:22;;;;;;;;;;;22.50;52.30;;;;;;483805;246;1396;-75
2022/08/26 01:13:24;;;;;;;;;;;22.60;52.20;;;;;;483749;246;1094;-74
2022/08/26 01:15:25;;;;;;;;;;;22.60;52.00;;;;;;483784;246;1126;-74
2022/08/26 01:17:26;;;;;;;;;;;22.60;52.00;;;;;;483907;246;1151;-74
2022/08/26 01:19:28;;;;;;;;;;;22.60;52.00;;;;;;483983;246;1178;-74
2022/08/26 01:21:29;;;;;;;;;;;22.50;52.10;;;;;;483820;246;1147;-74
2022/08/26 01:23:30;;;;;;;;;;;22.50;52.30;;;;;;483819;246;1247;-74
2022/08/26 01:25:32;;;;;;;;;;;22.40;52.30;;;;;;483783;246;2187;-74
2022/08/26 01:27:34;;;;;;;;;;;22.40;52.50;;;;;;483912;246;1189;-74
2022/08/26 01:29:34;;;;;;;;;;;22.30;52.60;;;;;;483798;246;1350;-74
2022/08/26 01:31:36;;;;;;;;;;;22.40;52.60;;;;;;483804;246;1211;-75
2022/08/26 01:33:38;;;;;;;;;;;22.40;52.50;;;;;;483721;246;1140;-75
2022/08/26 01:35:39;;;;;;;;;;;22.40;52.40;;;;;;483961;246;1208;-74
2022/08/26 01:37:40;;;;;;;;;;;22.30;52.50;;;;;;483806;246;1080;-74
2022/08/26 01:39:42;;;;;;;;;;;22.20;52.60;;;;;;483685;246;1228;-75
2022/08/26 01:41:43;;;;;;;;;;;22.30;52.70;;;;;;483950;246;1177;-74
2022/08/26 01:43:44;;;;;;;;;;;22.30;52.80;;;;;;483753;246;1094;-74
2022/08/26 01:45:46;;;;;;;;;;;22.30;52.60;;;;;;483944;246;2168;-74
2022/08/26 01:47:47;;;;;;;;;;;22.40;52.50;;;;;;483811;246;1183;-74
2022/08/26 01:49:48;;;;;;;;;;;22.50;52.30;;;;;;483711;246;1248;-74
2022/08/26 01:51:50;;;;;;;;;;;22.50;52.10;;;;;;484010;246;1122;-74
2022/08/26 01:53:51;;;;;;;;;;;22.50;52.10;;;;;;483959;246;1155;-74
2022/08/26 01:55:52;;;;;;;;;;;22.50;52.10;;;;;;483891;246;1162;-74
2022/08/26 01:57:54;;;;;;;;;;;22.50;52.10;;;;;;483777;246;1182;-74
2022/08/26 01:59:55;;;;;;;;;;;22.40;52.20;;;;;;483926;243;1161;-74
2022/08/26 02:01:56;;;;;;;;;;;22.40;52.10;;;;;;483811;246;1094;-74
2022/08/26 02:03:58;;;;;;;;;;;22.40;52.20;;;;;;483819;246;1162;-74
2022/08/26 02:05:59;;;;;;;;;;;22.40;52.20;;;;;;484266;246;2192;-74
2022/08/26 02:08:00;;;;;;;;;;;22.40;52.20;;;;;;484110;246;1336;-74
2022/08/26 02:10:02;;;;;;;;;;;22.40;52.40;;;;;;483972;246;1119;-74
2022/08/26 02:12:03;;;;;;;;;;;22.40;52.40;;;;;;483916;246;1084;-75
2022/08/26 02:14:04;;;;;;;;;;;22.30;52.60;;;;;;483748;246;1113;-75
2022/08/26 02:16:06;;;;;;;;;;;22.40;52.50;;;;;;483735;246;1119;-74
2022/08/26 02:18:07;;;;;;;;;;;22.30;52.30;;;;;;483883;246;1161;-74
2022/08/26 02:20:08;;;;;;;;;;;22.30;52.30;;;;;;483932;246;1189;-74
2022/08/26 02:22:10;;;;;;;;;;;22.20;52.50;;;;;;483846;246;1288;-74
2022/08/26 02:24:11;;;;;;;;;;;22.20;52.50;;;;;;483875;246;2187;-74
2022/08/26 02:26:13;;;;;;;;;;;22.20;52.30;;;;;;484035;242;1185;-74
2022/08/26 02:28:14;;;;;;;;;;;22.30;52.30;;;;;;483778;246;1146;-74
2022/08/26 02:30:15;;;;;;;;;;;22.20;52.20;;;;;;483799;245;1050;-74
2022/08/26 02:32:17;;;;;;;;;;;22.20;52.20;;;;;;483770;246;1403;-74
2022/08/26 02:34:18;;;;;;;;;;;22.30;52.30;;;;;;483783;246;1229;-74
2022/08/26 02:36:19;;;;;;;;;;;22.30;52.10;;;;;;483835;246;1143;-74
2022/08/26 02:38:21;;;;;;;;;;;22.20;52.20;;;;;;483832;246;1058;-74
2022/08/26 02:40:22;;;;;;;;;;;22.30;52.10;;;;;;483738;246;1377;-74
2022/08/26 02:42:23;;;;;;;;;;;22.20;52.30;;;;;;483812;246;1072;-74
2022/08/26 02:44:25;;;;;;;;;;;22.20;52.20;;;;;;483756;246;2204;-74
2022/08/26 02:46:26;;;;;;;;;;;22.20;52.30;;;;;;483766;246;1117;-74
2022/08/26 02:48:27;;;;;;;;;;;22.30;52.20;;;;;;484067;246;1186;-74
2022/08/26 02:50:29;;;;;;;;;;;22.30;52.20;;;;;;483923;246;1249;-74
2022/08/26 02:52:30;;;;;;;;;;;22.40;52.10;;;;;;483899;246;1158;-74
2022/08/26 02:54:31;;;;;;;;;;;22.40;51.90;;;;;;483790;246;1174;-74
2022/08/26 02:56:33;;;;;;;;;;;22.40;52.20;;;;;;483748;243;1167;-74
2022/08/26 02:58:34;;;;;;;;;;;22.40;52.20;;;;;;483789;242;1077;-74
2022/08/26 03:00:35;;;;;;;;;;;22.40;52.20;;;;;;483767;243;1197;-74
2022/08/26 03:02:37;;;;;;;;;;;22.30;52.20;;;;;;483757;246;1177;-74
2022/08/26 03:04:38;;;;;;;;;;;22.20;52.40;;;;;;483736;246;2192;-74
2022/08/26 03:06:40;;;;;;;;;;;22.20;52.50;;;;;;483717;246;1158;-74
2022/08/26 03:08:41;;;;;;;;;;;22.20;52.50;;;;;;483829;246;1105;-74
2022/08/26 03:10:42;;;;;;;;;;;22.30;52.60;;;;;;483899;242;1072;-74
2022/08/26 03:12:44;;;;;;;;;;;22.30;52.30;;;;;;483827;246;1169;-74
2022/08/26 03:14:45;;;;;;;;;;;22.30;52.40;;;;;;483721;246;1164;-74
2022/08/26 03:16:49;;;;;;;;;;;22.30;52.40;;;;;;483841;246;1186;-74
2022/08/26 03:18:48;;;;;;;;;;;22.40;52.40;;;;;;483602;246;1353;-74
2022/08/26 03:20:49;;;;;;;;;;;22.40;52.10;;;;;;483777;246;1144;-74
2022/08/26 03:22:52;;;;;;;;;;;22.40;52.10;;;;;;483839;246;1244;-74
2022/08/26 03:24:52;;;;;;;;;;;22.40;52.20;;;;;;483676;246;2195;-74
2022/08/26 03:26:53;;;;;;;;;;;22.40;52.10;;;;;;483748;246;1164;-74
2022/08/26 03:31:15;;;;;;;;;;;22.40;52.40;;;;;;483804;246;1227;-74
2022/08/26 03:33:15;;;;;;;;;;;22.40;52.30;;;;;;483791;246;1304;-74
2022/08/26 03:35:17;;;;;;;;;;;22.40;52.40;;;;;;483828;245;1144;-74
2022/08/26 03:37:20;;;;;;;;;;;22.30;52.40;;;;;;483764;246;1164;-74
2022/08/26 03:39:19;;;;;;;;;;;22.40;52.30;;;;;;483700;246;1519;-74
2022/08/26 03:41:21;;;;;;;;;;;22.40;52.20;;;;;;484050;246;1078;-74
2022/08/26 03:43:25;;;;;;;;;;;22.40;52.30;;;;;;484056;246;1141;-74
2022/08/26 03:45:23;;;;;;;;;;;22.40;52.00;;;;;;483592;246;2164;-74
2022/08/26 03:47:25;;;;;;;;;;;22.40;52.10;;;;;;483792;246;1125;-74
2022/08/26 03:49:26;;;;;;;;;;;22.50;52.10;;;;;;483747;246;1108;-74
2022/08/26 03:51:27;;;;;;;;;;;22.40;51.90;;;;;;483788;246;1229;-74
2022/08/26 03:53:29;;;;;;;;;;;22.40;52.20;;;;;;483888;246;1170;-75
2022/08/26 03:55:30;;;;;;;;;;;22.40;51.90;;;;;;483795;246;1185;-75
2022/08/26 03:57:31;;;;;;;;;;;22.40;52.10;;;;;;483738;246;1090;-75
2022/08/26 03:59:33;;;;;;;;;;;22.40;52.00;;;;;;483934;246;1122;-74
2022/08/26 04:01:34;;;;;;;;;;;22.40;52.20;;;;;;483773;246;1276;-75
2022/08/26 04:05:55;;;;;;;;;;;22.30;52.40;;;;;;483753;246;2164;-74
2022/08/26 04:07:56;;;;;;;;;;;22.30;52.40;;;;;;483763;246;1221;-74
2022/08/26 04:09:57;;;;;;;;;;;22.40;52.20;;;;;;483880;246;1290;-74
2022/08/26 04:11:59;;;;;;;;;;;22.40;52.20;;;;;;483892;246;1111;-74
2022/08/26 04:14:00;;;;;;;;;;;22.30;52.00;;;;;;483807;246;1163;-74
2022/08/26 04:16:01;;;;;;;;;;;22.30;52.30;;;;;;483756;246;1132;-74
2022/08/26 04:18:03;;;;;;;;;;;22.30;52.30;;;;;;483701;246;1141;-74
2022/08/26 04:20:04;;;;;;;;;;;22.30;52.30;;;;;;483827;246;1179;-74
2022/08/26 04:22:07;;;;;;;;;;;22.30;52.20;;;;;;483867;246;1183;-74
2022/08/26 04:24:07;;;;;;;;;;;22.30;52.20;;;;;;483812;246;1422;-74
2022/08/26 04:26:08;;;;;;;;;;;22.40;52.10;;;;;;483916;246;2152;-74
2022/08/26 04:28:09;;;;;;;;;;;22.40;52.10;;;;;;483810;246;1063;-74
2022/08/26 04:30:11;;;;;;;;;;;22.40;52.00;;;;;;483990;246;1040;-74
2022/08/26 04:32:12;;;;;;;;;;;22.40;52.00;;;;;;483842;245;1053;-74
2022/08/26 04:34:13;;;;;;;;;;;22.40;52.20;;;;;;483808;246;1060;-74
2022/08/26 04:36:15;;;;;;;;;;;22.30;52.20;;;;;;483768;246;1095;-74
2022/08/26 04:38:18;;;;;;;;;;;22.40;52.20;;;;;;483895;246;1083;-74
2022/08/26 04:40:17;;;;;;;;;;;22.40;52.10;;;;;;483710;246;1586;-74
2022/08/26 04:42:18;;;;;;;;;;;22.40;51.90;;;;;;483791;246;1051;-74
2022/08/26 04:44:20;;;;;;;;;;;22.40;52.10;;;;;;483766;246;1157;-74
2022/08/26 04:46:22;;;;;;;;;;;22.40;52.10;;;;;;483930;246;2203;-74
2022/08/26 04:48:23;;;;;;;;;;;22.40;52.10;;;;;;483786;246;1045;-74
2022/08/26 04:50:25;;;;;;;;;;;22.40;52.00;;;;;;483769;246;1033;-74
2022/08/26 04:52:26;;;;;;;;;;;22.40;52.10;;;;;;483724;246;1131;-74
2022/08/26 04:54:28;;;;;;;;;;;22.40;52.10;;;;;;483792;246;1045;-74
2022/08/26 04:56:29;;;;;;;;;;;22.40;52.10;;;;;;483832;246;1221;-74
2022/08/26 04:58:30;;;;;;;;;;;22.50;52.00;;;;;;483754;246;1039;-74
2022/08/26 05:00:31;;;;;;;;;;;22.50;51.90;;;;;;483766;246;1106;-74
2022/08/26 05:02:33;;;;;;;;;;;22.50;52.00;;;;;;483875;246;1131;-74
2022/08/26 05:04:34;;;;;;;;;;;22.50;51.90;;;;;;483808;246;1200;-74
2022/08/26 05:06:36;;;;;;;;;;;22.50;51.90;;;;;;483846;246;2199;-74
2022/08/26 05:08:37;;;;;;;;;;;22.40;51.90;;;;;;483742;246;1199;-74
2022/08/26 05:10:38;;;;;;;;;;;22.40;52.00;;;;;;483742;246;1095;-74
2022/08/26 05:12:40;;;;;;;;;;;22.40;51.90;;;;;;483796;246;1211;-74
2022/08/26 05:14:41;;;;;;;;;;;22.30;52.10;;;;;;483867;246;1221;-74
2022/08/26 05:16:42;;;;;;;;;;;22.30;52.10;;;;;;483600;246;1087;-74
2022/08/26 05:18:44;;;;;;;;;;;22.30;52.20;;;;;;483793;246;1311;-74
2022/08/26 05:20:45;;;;;;;;;;;22.20;52.30;;;;;;483734;246;1284;-74
2022/08/26 05:22:46;;;;;;;;;;;22.20;52.20;;;;;;483719;246;1269;-74
2022/08/26 05:24:48;;;;;;;;;;;22.20;52.20;;;;;;484220;246;1279;-74
2022/08/26 05:26:49;;;;;;;;;;;22.20;52.20;;;;;;483790;246;2140;-74
2022/08/26 05:28:50;;;;;;;;;;;22.30;52.20;;;;;;483716;246;1201;-74
2022/08/26 05:30:51;;;;;;;;;;;22.30;52.10;;;;;;483807;246;1212;-74
2022/08/26 05:32:53;;;;;;;;;;;22.30;52.20;;;;;;483809;245;1208;-74
2022/08/26 05:34:55;;;;;;;;;;;22.30;52.10;;;;;;483840;246;1060;-75
2022/08/26 05:36:56;;;;;;;;;;;22.40;52.00;;;;;;483708;245;1499;-74
2022/08/26 05:38:57;;;;;;;;;;;22.30;52.10;;;;;;483772;246;1154;-74
2022/08/26 05:40:58;;;;;;;;;;;22.30;52.10;;;;;;483705;246;1113;-74
2022/08/26 05:43:00;;;;;;;;;;;22.40;52.10;;;;;;483778;246;1079;-74
2022/08/26 05:45:02;;;;;;;;;;;22.40;52.10;;;;;;484077;246;1189;-74
2022/08/26 05:47:03;;;;;;;;;;;22.50;51.90;;;;;;483696;246;2208;-74
2022/08/26 05:49:04;;;;;;;;;;;22.40;51.90;;;;;;483727;246;1144;-74
2022/08/26 05:51:05;;;;;;;;;;;22.40;51.90;;;;;;483738;246;1268;-74
2022/08/26 05:53:07;;;;;;;;;;;22.40;52.20;;;;;;483644;246;1189;-74
2022/08/26 05:55:08;;;;;;;;;;;22.40;52.30;;;;;;483696;246;1173;-74
2022/08/26 05:57:10;;;;;;;;;;;22.40;52.30;;;;;;483764;246;1234;-75
2022/08/26 05:59:11;;;;;;;;;;;22.40;52.20;;;;;;483794;246;1373;-74
2022/08/26 06:01:13;;;;;;;;;;;22.50;51.90;;;;;;483643;246;1273;-74
2022/08/26 06:03:14;;;;;;;;;;;22.50;52.00;;;;;;483666;246;1133;-74
2022/08/26 06:05:15;;;;;;;;;;;22.50;52.10;;;;;;483773;246;1247;-74
2022/08/26 06:07:17;;;;;;;;;;;22.40;52.20;;;;;;483713;246;2188;-74
2022/08/26 06:09:18;;;;;;;;;;;22.30;52.60;;;;;;483891;246;1175;-74
2022/08/26 06:11:19;;;;;;;;;;;22.30;52.60;;;;;;483660;246;1135;-74
2022/08/26 06:13:21;;;;;;;;;;;22.40;52.50;;;;;;483794;246;1066;-74
2022/08/26 06:15:22;;;;;;;;;;;22.50;52.30;;;;;;483758;246;1133;-74
2022/08/26 06:17:24;;;;;;;;;;;22.50;52.40;;;;;;483758;246;1480;-74
2022/08/26 06:19:24;;;;;;;;;;;22.40;52.50;;;;;;483777;246;1251;-74
2022/08/26 06:21:26;;;;;;;;;;;22.40;52.50;;;;;;483897;246;1123;-74
2022/08/26 06:25:47;;;;;;;;;;;22.50;52.40;;;;;;483686;246;2963;-74
2022/08/26 06:27:48;;;;;;;;;;;22.40;52.50;;;;;;483792;246;1181;-74
2022/08/26 06:29:50;;;;;;;;;;;22.40;52.50;;;;;;483778;246;1217;-74
2022/08/26 06:31:51;;;;;;;;;;;22.50;52.50;;;;;;483672;246;1226;-74
2022/08/26 06:33:52;;;;;;;;;;;22.50;52.50;;;;;;483934;246;1190;-74
2022/08/26 06:35:53;;;;;;;;;;;22.60;52.50;;;;;;483921;246;1166;-74
2022/08/26 06:37:55;;;;;;;;;;;22.50;52.50;;;;;;483723;246;1139;-74
2022/08/26 06:39:56;;;;;;;;;;;22.40;52.60;;;;;;483752;246;1138;-74
2022/08/26 06:41:58;;;;;;;;;;;22.40;52.80;;;;;;483718;246;1137;-74
2022/08/26 06:43:59;;;;;;;;;;;22.40;52.70;;;;;;483724;246;1213;-74
2022/08/26 06:46:01;;;;;;;;;;;22.50;52.80;;;;;;483861;246;2140;-74
2022/08/26 06:48:02;;;;;;;;;;;22.60;52.60;;;;;;483768;246;1148;-74
2022/08/26 06:50:04;;;;;;;;;;;22.60;52.60;;;;;;483697;246;1106;-74
2022/08/26 06:52:05;;;;;;;;;;;22.60;52.50;;;;;;483653;246;1185;-74
2022/08/26 06:54:06;;;;;;;;;;;22.60;52.70;;;;;;483650;246;1173;-74
2022/08/26 06:56:08;;;;;;;;;;;22.50;52.80;;;;;;483650;246;1162;-74
2022/08/26 06:58:09;;;;;;;;;;;22.50;52.80;;;;;;483730;246;1178;-74
2022/08/26 07:00:10;;;;;;;;;;;22.50;52.90;;;;;;483606;246;1154;-74
2022/08/26 07:02:12;;;;;;;;;;;22.50;53.00;;;;;;483506;246;1229;-74
2022/08/26 07:04:14;;;;;;;;;;;22.50;53.10;;;;;;483716;246;1161;-74
2022/08/26 07:06:17;;;;;;;;;;;22.60;53.10;;;;;;483716;246;2191;-74
2022/08/26 07:08:16;;;;;;;;;;;22.60;52.90;;;;;;483637;246;1247;-74
2022/08/26 07:10:18;;;;;;;;;;;22.50;53.00;;;;;;483475;246;1076;-74
2022/08/26 07:12:19;;;;;;;;;;;22.50;53.10;;;;;;483571;246;1174;-74
2022/08/26 07:14:21;;;;;;;;;;;22.60;53.10;;;;;;483589;246;1115;-74
2022/08/26 07:16:22;;;;;;;;;;;22.50;53.20;;;;;;483549;246;1096;-74
2022/08/26 07:18:23;;;;;;;;;;;22.50;53.10;;;;;;483607;246;1065;-74
2022/08/26 07:20:25;;;;;;;;;;;22.60;53.20;;;;;;483485;246;1192;-74
2022/08/26 07:22:26;;;;;;;;;;;22.60;53.20;;;;;;483717;246;1465;-74
2022/08/26 07:24:27;;;;;;;;;;;22.50;53.30;;;;;;483630;246;1140;-75
2022/08/26 07:26:29;;;;;;;;;;;22.60;53.40;;;;;;483617;246;2157;-74
2022/08/26 07:28:30;;;;;;;;;;;22.50;53.30;;;;;;483671;245;1112;-74
2022/08/26 07:30:32;;;;;;;;;;;22.60;53.30;;;;;;483626;246;1176;-74
2022/08/26 07:32:33;;;;;;;;;;;22.70;53.10;;;;;;483672;246;1204;-74
2022/08/26 07:34:34;;;;;;;;;;;22.60;53.20;;;;;;483660;242;1189;-74
2022/08/26 07:36:36;;;;;;;;;;;22.70;53.20;;;;;;483671;246;1174;-74
2022/08/26 07:38:37;;;;;;;;;;;22.70;53.10;;;;;;483630;246;1222;-74
2022/08/26 07:40:39;;;;;;;;;;;22.60;53.20;;;;;;483698;246;1138;-74
2022/08/26 07:42:40;;;;;;;;;;;22.60;53.40;;;;;;483721;246;1183;-74
2022/08/26 07:44:42;;;;;;;;;;;22.60;53.10;;;;;;483677;246;1210;-74
2022/08/26 07:46:43;;;;;;;;;;;22.60;52.80;;;;;;483884;246;2391;-74
2022/08/26 07:48:44;;;;;;;;;;;22.60;53.00;;;;;;483610;246;1136;-74
2022/08/26 07:50:46;;;;;;;;;;;22.60;53.10;;;;;;483685;246;1159;-74
2022/08/26 07:52:47;;;;;;;;;;;22.60;53.10;;;;;;483621;246;1153;-74
2022/08/26 07:54:48;;;;;;;;;;;22.50;53.10;;;;;;483496;246;1118;-74
2022/08/26 07:56:50;;;;;;;;;;;22.50;53.30;;;;;;483544;246;1076;-74
2022/08/26 07:58:51;;;;;;;;;;;22.60;53.20;;;;;;483559;246;1224;-74
2022/08/26 08:00:52;;;;;;;;;;;22.50;53.20;;;;;;483518;246;1160;-74
2022/08/26 08:02:54;;;;;;;;;;;22.60;53.30;;;;;;483569;246;1071;-74
2022/08/26 08:04:55;;;;;;;;;;;22.60;53.30;;;;;;483760;246;1140;-74
2022/08/26 08:06:56;;;;;;;;;;;22.60;53.30;;;;;;483629;246;2187;-74
2022/08/26 08:08:57;;;;;;;;;;;22.60;53.20;;;;;;483760;245;1188;-74
2022/08/26 08:10:59;;;;;;;;;;;22.60;53.40;;;;;;482756;246;1166;-74
2022/08/26 08:13:00;;;;;;;;;;;22.70;53.30;;;;;;483609;246;1106;-74
2022/08/26 08:15:01;;;;;;;;;;;22.60;53.30;;;;;;483782;246;1129;-74
2022/08/26 08:17:03;;;;;;;;;;;22.70;53.30;;;;;;483647;242;1261;-74
2022/08/26 08:19:04;;;;;;;;;;;22.80;53.20;;;;;;484031;246;1110;-74
2022/08/26 08:21:06;;;;;;;;;;;22.70;53.20;;;;;;483638;246;1185;-74
2022/08/26 08:23:07;;;;;;;;;;;22.70;53.30;;;;;;483609;246;1091;-74
2022/08/26 08:25:08;;;;;;;;;;;22.70;53.40;;;;;;483758;246;1177;-74
2022/08/26 08:27:10;;;;;;;;;;;22.70;53.40;;;;;;483601;246;2204;-74
2022/08/26 08:29:11;;;;;;;;;;;22.80;53.30;;;;;;483690;246;1120;-74
2022/08/26 08:31:12;;;;;;;;;;;22.70;53.40;;;;;;483637;246;1403;-75
2022/08/26 08:33:14;;;;;;;;;;;22.80;53.50;;;;;;483661;245;1074;-74
2022/08/26 08:35:15;;;;;;;;;;;22.80;53.30;;;;;;483624;246;1201;-74
2022/08/26 08:37:16;;;;;;;;;;;22.80;53.30;;;;;;483247;246;1161;-74
2022/08/26 08:39:18;;;;;;;;;;;22.90;53.30;;;;;;483263;246;1483;-74
2022/08/26 08:41:19;;;;;;;;;;;22.80;53.20;;;;;;483238;246;1151;-74
2022/08/26 08:43:20;;;;;;;;;;;22.70;53.50;;;;;;483440;246;1124;-74
2022/08/26 08:45:22;;;;;;;;;;;22.70;53.70;;;;;;483641;246;1048;-74
2022/08/26 08:47:23;;;;;;;;;;;22.60;53.80;;;;;;483509;246;2204;-74
2022/08/26 08:49:25;;;;;;;;;;;22.60;54.00;;;;;;483632;246;1086;-74
2022/08/26 08:51:26;;;;;;;;;;;22.60;54.00;;;;;;483665;246;1169;-74
2022/08/26 08:53:28;;;;;;;;;;;22.70;53.90;;;;;;483519;246;1185;-74
2022/08/26 08:55:29;;;;;;;;;;;22.70;53.90;;;;;;483609;246;1167;-74
2022/08/26 08:57:30;;;;;;;;;;;22.80;53.80;;;;;;483584;246;1151;-74
2022/08/26 08:59:32;;;;;;;;;;;22.80;53.80;;;;;;483531;246;1187;-74
2022/08/26 09:01:33;;;;;;;;;;;22.70;53.80;;;;;;483709;246;1220;-74
2022/08/26 09:03:34;;;;;;;;;;;22.80;53.90;;;;;;483678;246;1174;-74
2022/08/26 09:05:39;;;;;;;;;;;22.80;53.80;;;;;;483653;246;1192;-74
2022/08/26 09:07:37;;;;;;;;;;;22.70;53.90;;;;;;483429;246;2196;-74
2022/08/26 09:09:38;;;;;;;;;;;22.70;54.10;;;;;;483453;246;1137;-74
2022/08/26 09:11:39;;;;;;;;;;;22.70;54.00;;;;;;483631;246;1158;-74
2022/08/26 09:13:41;;;;;;;;;;;22.70;54.00;;;;;;483606;246;1253;-74
2022/08/26 09:15:42;;;;;;;;;;;22.80;53.90;;;;;;483706;246;1227;-74
2022/08/26 09:17:44;;;;;;;;;;;22.80;53.90;;;;;;483520;246;1069;-74
2022/08/26 09:19:45;;;;;;;;;;;22.70;53.80;;;;;;483673;246;1246;-74
2022/08/26 09:21:46;;;;;;;;;;;22.70;54.10;;;;;;483831;246;994;-74
2022/08/26 09:23:49;;;;;;;;;;;22.70;54.00;;;;;;483629;246;1235;-75
2022/08/26 09:25:49;;;;;;;;;;;22.70;54.00;;;;;;483372;246;1226;-74
2022/08/26 09:27:50;;;;;;;;;;;22.70;54.10;;;;;;484048;246;2160;-74
2022/08/26 09:29:53;;;;;;;;;;;22.60;54.30;;;;;;483906;246;1173;-74
2022/08/26 09:31:53;;;;;;;;;;;22.60;54.40;;;;;;483522;246;1425;-74
2022/08/26 09:33:55;;;;;;;;;;;22.70;54.30;;;;;;483637;246;1168;-74
2022/08/26 09:35:56;;;;;;;;;;;22.70;54.20;;;;;;483557;246;1286;-74
2022/08/26 09:37:57;;;;;;;;;;;22.70;54.30;;;;;;483680;246;1121;-74
2022/08/26 09:40:05;;;;;;;;;;;22.70;54.40;;;;;;483733;246;1095;-74
2022/08/26 09:42:07;;;;;;;;;;;22.60;54.20;;;;;;483901;244;1166;-74
2022/08/26 09:44:08;;;;;;;;;;;22.70;54.20;;;;;;483618;246;1178;-74
2022/08/26 09:46:09;;;;;;;;;;;22.60;54.30;;;;;;483692;246;1182;-74
2022/08/26 09:48:11;;;;;;;;;;;22.60;54.10;;;;;;483543;246;2156;-74
2022/08/26 09:50:13;;;;;;;;;;;22.60;53.90;;;;;;483601;246;1107;-74
2022/08/26 09:52:13;;;;;;;;;;;22.70;53.90;;;;;;483733;246;1442;-74
2022/08/26 09:54:15;;;;;;;;;;;22.60;53.90;;;;;;483531;246;1326;-74
2022/08/26 09:56:16;;;;;;;;;;;22.50;54.00;;;;;;483588;246;1178;-74
2022/08/26 09:58:18;;;;;;;;;;;22.50;54.10;;;;;;483917;246;1106;-74
2022/08/26 10:00:19;;;;;;;;;;;22.50;54.10;;;;;;483849;246;1340;-74
2022/08/26 10:02:20;;;;;;;;;;;22.60;54.00;;;;;;483695;246;1238;-74
2022/08/26 10:04:21;;;;;;;;;;;22.70;53.90;;;;;;483743;246;1181;-74
2022/08/26 10:06:23;;;;;;;;;;;22.70;53.80;;;;;;483627;246;1174;-74
2022/08/26 10:08:24;;;;;;;;;;;22.60;53.90;;;;;;483567;246;2184;-74
2022/08/26 10:10:25;;;;;;;;;;;22.60;54.00;;;;;;483935;246;1169;-74
2022/08/26 10:12:27;;;;;;;;;;;22.60;54.20;;;;;;484035;246;1168;-74
2022/08/26 10:14:28;;;;;;;;;;;22.70;54.00;;;;;;484060;246;1203;-74
2022/08/26 10:16:29;;;;;;;;;;;22.70;53.80;;;;;;484185;246;1172;-74
2022/08/26 10:18:31;;;;;;;;;;;22.80;53.80;;;;;;484205;246;1133;-74
2022/08/26 10:20:32;;;;;;;;;;;22.90;53.60;;;;;;484110;246;1151;-74
2022/08/26 10:22:33;;;;;;;;;;;22.80;53.60;;;;;;484136;246;1154;-74
2022/08/26 10:24:35;;;;;;;;;;;22.80;53.80;;;;;;483952;246;1091;-75
2022/08/26 10:26:36;;;;;;;;;;;22.80;53.90;;;;;;484060;246;1137;-75
2022/08/26 10:28:37;;;;;;;;;;;22.80;53.80;;;;;;484149;246;2152;-75
2022/08/26 10:30:39;;;;;;;;;;;22.80;53.70;;;;;;483905;246;1126;-74
2022/08/26 10:32:40;;;;;;;;;;;22.80;53.80;;;;;;483920;242;1460;-74
2022/08/26 10:34:42;;;;;;;;;;;22.80;53.70;;;;;;484155;246;1143;-74
2022/08/26 10:36:49;;;;;;;;;;;22.90;53.60;;;;;;483835;246;1243;-74
2022/08/26 10:38:50;;;;;;;;;;;22.90;53.60;;;;;;483816;246;1159;-74
2022/08/26 10:40:53;;;;;;;;;;;22.90;53.70;;;;;;483807;246;1077;-74
2022/08/26 10:42:53;;;;;;;;;;;22.80;53.70;;;;;;483724;246;1401;-74
2022/08/26 10:44:54;;;;;;;;;;;22.80;53.80;;;;;;483755;246;1153;-74
2022/08/26 10:46:56;;;;;;;;;;;22.80;53.90;;;;;;483859;246;1329;-74
2022/08/26 10:48:57;;;;;;;;;;;22.80;53.90;;;;;;483918;246;2180;-74
2022/08/26 10:50:59;;;;;;;;;;;22.80;53.90;;;;;;483886;246;1384;-74
2022/08/26 10:53:00;;;;;;;;;;;22.90;53.80;;;;;;483848;246;1135;-75
2022/08/26 10:55:05;;;;;;;;;;;22.80;53.70;;;;;;483758;245;1421;-75
2022/08/26 10:57:06;;;;;;;;;;;22.90;53.80;;;;;;483818;246;1177;-74
2022/08/26 10:59:14;;;;;;;;;;;22.90;53.80;;;;;;483851;246;1178;-74
2022/08/26 11:03:34;;;;;;;;;;;22.90;53.70;;;;;;483769;246;1250;-74
2022/08/26 11:05:36;;;;;;;;;;;22.90;53.70;;;;;;483880;246;1095;-74
2022/08/26 11:07:38;;;;;;;;;;;22.90;53.70;;;;;;483488;246;2196;-74
2022/08/26 11:09:38;;;;;;;;;;;23.00;53.60;;;;;;483484;246;1489;-74
2022/08/26 11:11:40;;;;;;;;;;;22.90;53.60;;;;;;483789;246;1177;-74
2022/08/26 11:13:41;;;;;;;;;;;22.80;53.80;;;;;;483854;246;1144;-74
2022/08/26 11:15:42;;;;;;;;;;;22.80;54.00;;;;;;483935;246;1092;-74
2022/08/26 11:17:44;;;;;;;;;;;22.70;54.10;;;;;;483881;246;1202;-74
2022/08/26 11:19:45;;;;;;;;;;;22.70;54.30;;;;;;483773;246;1243;-74
2022/08/26 11:21:46;;;;;;;;;;;22.70;54.40;;;;;;483698;246;1164;-74
2022/08/26 11:23:48;;;;;;;;;;;22.60;54.40;;;;;;483657;246;1298;-74
2022/08/26 11:25:49;;;;;;;;;;;22.70;54.30;;;;;;483785;246;1173;-74
2022/08/26 11:27:50;;;;;;;;;;;22.70;54.20;;;;;;483749;246;2204;-74
2022/08/26 11:29:52;;;;;;;;;;;22.70;54.10;;;;;;483725;246;1124;-74
2022/08/26 11:31:53;;;;;;;;;;;22.80;54.20;;;;;;483643;246;1148;-74
2022/08/26 11:33:58;;;;;;;;;;;22.70;54.10;;;;;;483537;246;1160;-74
2022/08/26 11:35:59;;;;;;;;;;;22.70;54.20;;;;;;483745;246;1201;-74
2022/08/26 11:38:00;;;;;;;;;;;22.60;54.30;;;;;;483673;246;1269;-74
2022/08/26 11:40:03;;;;;;;;;;;22.70;54.40;;;;;;483705;246;1210;-74
2022/08/26 11:42:04;;;;;;;;;;;22.80;54.20;;;;;;483817;246;1175;-74
2022/08/26 11:44:08;;;;;;;;;;;22.70;54.00;;;;;;483775;246;1134;-74
2022/08/26 11:46:07;;;;;;;;;;;22.70;54.20;;;;;;483565;246;1427;-74
2022/08/26 11:48:08;;;;;;;;;;;22.70;54.20;;;;;;483759;246;2183;-74
2022/08/26 11:50:09;;;;;;;;;;;22.60;54.20;;;;;;483838;246;1232;-74
2022/08/26 11:52:10;;;;;;;;;;;22.60;54.30;;;;;;483843;246;1150;-74
2022/08/26 11:54:12;;;;;;;;;;;22.60;54.20;;;;;;483742;246;1141;-74
2022/08/26 11:56:13;;;;;;;;;;;22.70;54.10;;;;;;483796;246;1167;-75
2022/08/26 11:58:15;;;;;;;;;;;22.70;53.90;;;;;;483927;246;1294;-74
2022/08/26 12:00:16;;;;;;;;;;;22.60;53.80;;;;;;483721;246;1207;-74
2022/08/26 12:02:18;;;;;;;;;;;22.50;53.90;;;;;;483941;246;1213;-74
2022/08/26 12:04:18;;;;;;;;;;;22.60;53.80;;;;;;483902;246;1373;-74
2022/08/26 12:06:20;;;;;;;;;;;22.50;53.90;;;;;;483815;246;1122;-74